LFPN

Toussus-le-Noble Airport

Airport
ICAO code
LFPN
IATA Code
TNF
Summary
ICAO Region
EUR
ICAO Territory
Location

, Ile-de-France

Serving
Toussus-le-Noble
Elevation
538 ft
Coordinates
48° 45' 7" N , 2° 6' 22" E
Metar
Observation
LFPN 280500Z AUTO 24006KT 9000 OVC003 08/08 Q1011
Station
Toussus Le Noble
Date/Time
2022-11-28 05:00:00
Wind direction
240°
Wind speed
06 kts
Lowest cloud amount
overcast
Temperature
8°C
Dew point
8°C
Humidity
100%
QNH
1011 hPa
Weather condition
n/a

Runways

Designator Length Width Surface Rops
07R/25L 1050 30 ASP No/No
07L/25R 1100 30 ASP No/No

Airport map

Aerial View

SKYbrary Partners:

Safety knowledge contributed by: